createdAt,value
2023-02-21T00:02:35.469Z,102069.66
2023-02-21T00:05:20.494Z,102074.44
2023-02-21T00:08:05.512Z,102072.03
2023-02-21T00:10:50.369Z,102070.13
2023-02-21T00:13:35.261Z,102071.88
2023-02-21T00:16:20.008Z,102070.25
2023-02-21T00:19:04.950Z,102065.75
2023-02-21T00:21:50.282Z,102049.28
2023-02-21T00:24:36.192Z,102076.47
2023-02-21T00:27:20.967Z,102069.31
2023-02-21T00:30:06.898Z,102067.50
2023-02-21T00:32:52.036Z,102066.63
2023-02-21T00:35:37.204Z,102064.13
2023-02-21T00:38:23.611Z,102074.56
2023-02-21T00:41:09.718Z,102066.88
2023-02-21T00:43:54.594Z,102067.66
2023-02-21T00:46:40.009Z,102079.69
2023-02-21T00:49:25.417Z,102073.78
2023-02-21T00:52:10.277Z,102067.97
2023-02-21T00:54:55.513Z,102065.97
2023-02-21T00:57:40.939Z,102072.44
2023-02-21T01:00:26.804Z,102071.13
2023-02-21T01:03:11.547Z,102066.78
2023-02-21T01:05:56.464Z,102061.66
2023-02-21T01:08:41.280Z,102066.44
2023-02-21T01:11:26.202Z,102060.56
2023-02-21T01:14:10.951Z,102050.28
2023-02-21T01:16:59.398Z,102052.25
2023-02-21T01:19:52.710Z,102047.00
2023-02-21T01:22:37.685Z,102047.06
2023-02-21T01:25:23.507Z,102040.50
2023-02-21T01:28:08.719Z,102027.47
2023-02-21T01:30:53.488Z,102031.00
2023-02-21T01:33:38.484Z,102034.56
2023-02-21T01:36:24.292Z,102025.47
2023-02-21T01:39:09.190Z,102019.38
2023-02-21T01:41:54.070Z,102016.00
2023-02-21T01:44:56.248Z,102022.75
2023-02-21T01:47:41.520Z,102016.00
2023-02-21T01:50:41.770Z,102031.53
2023-02-21T01:53:28.715Z,102024.66
2023-02-21T01:56:14.922Z,102022.00
2023-02-21T01:59:00.239Z,102031.81
2023-02-21T02:01:51.668Z,102022.25
2023-02-21T02:04:36.899Z,102023.19
2023-02-21T02:07:21.961Z,102014.63
2023-02-21T02:10:06.824Z,102016.38
2023-02-21T02:12:48.122Z,102020.47
2023-02-21T02:15:18.636Z,102010.94
2023-02-21T02:18:03.107Z,102004.69
2023-02-21T02:20:43.596Z,102007.47
2023-02-21T02:23:29.207Z,101977.28
2023-02-21T02:26:08.542Z,102007.41
2023-02-21T02:28:38.725Z,101999.38
2023-02-21T02:31:26.940Z,102009.66
2023-02-21T02:34:14.988Z,102007.09
2023-02-21T02:36:48.972Z,102007.03
2023-02-21T02:39:22.194Z,102005.47
2023-02-21T02:42:07.691Z,102003.78
2023-02-21T02:44:51.305Z,102000.81
2023-02-21T02:47:22.622Z,102006.91
2023-02-21T02:49:51.854Z,102005.00
2023-02-21T02:52:19.291Z,102007.72
2023-02-21T02:54:46.768Z,102008.75
2023-02-21T02:57:14.174Z,102012.94
2023-02-21T02:59:45.788Z,101994.19
2023-02-21T03:02:13.187Z,102000.16
2023-02-21T03:04:52.621Z,102000.16
2023-02-21T03:07:23.199Z,101999.03
2023-02-21T03:09:57.476Z,101994.03
2023-02-21T03:12:38.855Z,101993.19
2023-02-21T03:15:11.402Z,101987.00
2023-02-21T03:17:41.528Z,101996.88
2023-02-21T03:20:10.848Z,101991.47
2023-02-21T03:22:39.227Z,101993.28
2023-02-21T03:25:07.630Z,101996.66
2023-02-21T03:27:36.347Z,102003.72
2023-02-21T03:30:05.517Z,102001.13
2023-02-21T03:32:34.191Z,102007.16
2023-02-21T03:35:01.583Z,102006.53
2023-02-21T03:37:32.196Z,101979.09
2023-02-21T03:39:59.973Z,102003.53
2023-02-21T03:42:27.542Z,102001.78
2023-02-21T03:44:54.977Z,101994.03
2023-02-21T03:47:22.779Z,101992.28
2023-02-21T03:49:50.215Z,101988.25
2023-02-21T03:52:17.724Z,101988.06
2023-02-21T03:54:45.236Z,101982.94
2023-02-21T03:57:12.721Z,101975.94
2023-02-21T03:59:40.176Z,101988.00
2023-02-21T04:02:07.610Z,101997.50
2023-02-21T04:04:35.001Z,101990.59
2023-02-21T04:07:02.542Z,101990.81
2023-02-21T04:09:29.908Z,101986.56
2023-02-21T04:11:57.317Z,101992.44
2023-02-21T04:14:24.746Z,101985.59
2023-02-21T04:16:52.137Z,101989.81
2023-02-21T04:19:19.600Z,101978.66
2023-02-21T04:21:47.036Z,101975.22
2023-02-21T04:24:14.894Z,101979.63
2023-02-21T04:26:42.427Z,101982.34
2023-02-21T04:29:10.161Z,101980.44
2023-02-21T04:31:37.707Z,101983.00
2023-02-21T04:34:11.793Z,101978.66
2023-02-21T04:36:40.124Z,101982.03
2023-02-21T04:39:08.141Z,101984.69
2023-02-21T04:41:35.516Z,101982.81
2023-02-21T04:44:02.946Z,101976.06
2023-02-21T04:46:30.359Z,101973.56
2023-02-21T04:48:57.784Z,101971.63
2023-02-21T04:51:26.293Z,101970.69
2023-02-21T04:53:54.360Z,101967.22
2023-02-21T04:56:23.360Z,101968.09
2023-02-21T04:58:51.144Z,101966.38
2023-02-21T05:01:22.494Z,101962.03
2023-02-21T05:03:49.967Z,101969.06
2023-02-21T05:06:20.964Z,101976.91
2023-02-21T05:08:48.394Z,101970.81
2023-02-21T05:11:16.180Z,101969.06
2023-02-21T05:13:44.046Z,101964.00
2023-02-21T05:16:11.508Z,101965.78
2023-02-21T05:18:39.615Z,101965.50
2023-02-21T05:21:07.459Z,101970.56
2023-02-21T05:23:35.875Z,101965.44
2023-02-21T05:26:10.949Z,101977.47
2023-02-21T05:28:38.793Z,101981.84
2023-02-21T05:31:06.608Z,101984.59
2023-02-21T05:33:34.151Z,101977.66
2023-02-21T05:36:01.587Z,101961.84
2023-02-21T05:38:30.849Z,101966.22
2023-02-21T05:40:58.310Z,101974.09
2023-02-21T05:43:27.466Z,101984.22
2023-02-21T05:45:56.486Z,101990.94
2023-02-21T05:48:24.591Z,101988.31
2023-02-21T05:50:52.071Z,101979.09
2023-02-21T05:53:19.523Z,101979.03
2023-02-21T05:55:46.991Z,101969.53
2023-02-21T05:58:14.401Z,101975.66
2023-02-21T06:00:41.829Z,101963.31
2023-02-21T06:03:09.679Z,101993.22
2023-02-21T06:05:37.114Z,102003.53
2023-02-21T06:08:04.615Z,101997.56
2023-02-21T06:10:31.992Z,101989.81
2023-02-21T06:12:59.407Z,101984.59
2023-02-21T06:15:26.816Z,101974.94
2023-02-21T06:17:54.252Z,101984.34
2023-02-21T06:20:21.715Z,101990.53
2023-02-21T06:22:49.489Z,101991.25
2023-02-21T06:25:17.083Z,101991.31
2023-02-21T06:27:44.718Z,101983.53
2023-02-21T06:30:12.595Z,101990.81
2023-02-21T06:32:40.108Z,101991.59
2023-02-21T06:35:07.897Z,101991.63
2023-02-21T06:37:35.380Z,101995.00
2023-02-21T06:40:05.039Z,101996.81
2023-02-21T06:42:32.665Z,101994.25
2023-02-21T06:45:00.141Z,102002.81
2023-02-21T06:47:27.548Z,102008.97
2023-02-21T06:49:54.927Z,102012.38
2023-02-21T06:52:22.448Z,102008.91
2023-02-21T06:54:53.048Z,102001.09
2023-02-21T06:57:20.514Z,102003.00
2023-02-21T06:59:47.927Z,102000.25
2023-02-21T07:02:19.445Z,102002.06
2023-02-21T07:04:47.447Z,102005.38
2023-02-21T07:07:14.965Z,102001.94
2023-02-21T07:09:42.428Z,102000.09
2023-02-21T07:12:09.883Z,101995.78
2023-02-21T07:14:37.300Z,102000.31
2023-02-21T07:17:04.720Z,101991.59
2023-02-21T07:19:32.140Z,101996.88
2023-02-21T07:21:59.571Z,101995.19
2023-02-21T07:24:26.986Z,102001.91
2023-02-21T07:26:54.497Z,101994.13
2023-02-21T07:29:22.049Z,102001.25
2023-02-21T07:31:49.584Z,102004.75
2023-02-21T07:34:17.236Z,101990.84
2023-02-21T07:36:44.761Z,102000.41
2023-02-21T07:39:12.361Z,102003.06
2023-02-21T07:41:39.875Z,102000.56
2023-02-21T07:44:07.837Z,102004.16
2023-02-21T07:46:35.752Z,102007.56
2023-02-21T07:49:03.339Z,102004.09
2023-02-21T07:51:32.048Z,102008.34
2023-02-21T07:53:59.485Z,102010.31
2023-02-21T07:56:26.949Z,102006.69
2023-02-21T07:58:54.419Z,102003.28
2023-02-21T08:01:23.999Z,102008.47
2023-02-21T08:03:51.593Z,102013.66
2023-02-21T08:06:19.390Z,102012.81
2023-02-21T08:08:46.805Z,102010.34
2023-02-21T08:11:14.573Z,102007.94
2023-02-21T08:13:42.155Z,102012.91
2023-02-21T08:16:10.026Z,102020.56
2023-02-21T08:18:37.514Z,102019.88
2023-02-21T08:21:05.323Z,102010.28
2023-02-21T08:23:33.105Z,102016.13
2023-02-21T08:26:00.555Z,102021.38
2023-02-21T08:28:28.031Z,102020.47
2023-02-21T08:30:55.476Z,102010.28
2023-02-21T08:33:23.197Z,102005.75
2023-02-21T08:35:50.783Z,102012.91
2023-02-21T08:38:21.487Z,102019.81
2023-02-21T08:40:48.961Z,102007.50
2023-02-21T08:43:16.410Z,102011.06
2023-02-21T08:45:43.866Z,102004.00
2023-02-21T08:48:12.451Z,102010.25
2023-02-21T08:50:40.011Z,102005.63
2023-02-21T08:53:07.620Z,102002.41
2023-02-21T08:55:35.076Z,102002.50
2023-02-21T08:58:02.511Z,102004.03
2023-02-21T09:00:29.924Z,102005.84
2023-02-21T09:02:59.723Z,102010.16
2023-02-21T09:05:28.850Z,102002.22
2023-02-21T09:07:59.028Z,102005.69
2023-02-21T09:10:27.896Z,102007.44
2023-02-21T09:12:55.495Z,102003.03
2023-02-21T09:15:22.972Z,102000.09
2023-02-21T09:17:50.853Z,101994.50
2023-02-21T09:20:19.965Z,102000.69
2023-02-21T09:22:47.975Z,101994.44
2023-02-21T09:25:16.364Z,101995.41
2023-02-21T09:27:43.737Z,101989.28
2023-02-21T09:30:13.103Z,101991.16
2023-02-21T09:32:41.606Z,101986.56
2023-02-21T09:35:10.308Z,101991.84
2023-02-21T09:37:41.539Z,101988.66
2023-02-21T09:40:15.095Z,101991.97
2023-02-21T09:42:42.747Z,101981.38
2023-02-21T09:45:22.238Z,101974.47
2023-02-21T09:47:55.362Z,101978.13
2023-02-21T09:50:27.738Z,101977.41
2023-02-21T09:52:57.395Z,101974.94
2023-02-21T09:55:34.395Z,101975.72
2023-02-21T09:58:01.993Z,101981.84
2023-02-21T10:00:36.947Z,101968.03
2023-02-21T10:03:23.056Z,101969.56
2023-02-21T10:05:58.988Z,101962.94
2023-02-21T10:08:26.484Z,101966.34
2023-02-21T10:10:56.980Z,101967.94
2023-02-21T10:13:24.477Z,101961.09
2023-02-21T10:15:59.705Z,101964.38
2023-02-21T10:18:33.045Z,101963.44
2023-02-21T10:21:04.996Z,101966.00
2023-02-21T10:23:44.457Z,101970.28
2023-02-21T10:26:14.422Z,101977.31
2023-02-21T10:28:41.819Z,101973.00
2023-02-21T10:31:29.579Z,101978.03
2023-02-21T10:33:59.918Z,101971.41
2023-02-21T10:36:28.159Z,101972.91
2023-02-21T10:39:11.375Z,101974.94
2023-02-21T10:41:40.367Z,101975.06
2023-02-21T10:44:13.600Z,101973.16
2023-02-21T10:46:44.323Z,101970.75
2023-02-21T10:49:37.997Z,101976.78
2023-02-21T10:52:05.367Z,101975.78
2023-02-21T10:54:35.140Z,101974.97
2023-02-21T10:57:04.396Z,101978.34
2023-02-21T10:59:43.054Z,101972.56
2023-02-21T11:02:29.368Z,101978.69
2023-02-21T11:04:57.324Z,101971.56
2023-02-21T11:07:24.787Z,101966.59
2023-02-21T11:09:52.185Z,101971.88
2023-02-21T11:12:19.594Z,101963.09
2023-02-21T11:14:52.965Z,101963.78
2023-02-21T11:17:21.551Z,101964.72
2023-02-21T11:19:55.035Z,101964.78
2023-02-21T11:22:26.662Z,101972.53
2023-02-21T11:25:02.266Z,101966.28
2023-02-21T11:27:31.224Z,101964.75
2023-02-21T11:29:59.183Z,101958.69
2023-02-21T11:32:35.761Z,101956.16
2023-02-21T11:35:08.242Z,101959.50
2023-02-21T11:37:47.324Z,101950.84
2023-02-21T11:40:44.120Z,101949.25
2023-02-21T11:43:11.630Z,101948.38
2023-02-21T11:45:41.946Z,101944.00
2023-02-21T11:48:14.078Z,101945.81
2023-02-21T11:50:46.770Z,101947.38
2023-02-21T11:53:14.114Z,101942.25
2023-02-21T11:55:43.171Z,101945.69
2023-02-21T11:58:24.280Z,101943.84
2023-02-21T12:01:13.894Z,101937.94
2023-02-21T12:04:00.403Z,101936.09
2023-02-21T12:06:28.987Z,101939.53
2023-02-21T12:09:02.817Z,101933.41
2023-02-21T12:11:36.715Z,101942.00
2023-02-21T12:14:22.777Z,101936.97
2023-02-21T12:16:53.262Z,101934.97
2023-02-21T12:19:35.706Z,101931.72
2023-02-21T12:22:05.952Z,101928.22
2023-02-21T12:24:36.169Z,101932.66
2023-02-21T12:27:11.904Z,101924.81
2023-02-21T12:29:52.504Z,101924.88
2023-02-21T12:32:38.599Z,101919.41
2023-02-21T12:35:06.419Z,101923.00
2023-02-21T12:37:33.802Z,101918.59
2023-02-21T12:40:01.173Z,101917.78
2023-02-21T12:42:47.483Z,101913.63
2023-02-21T12:45:24.638Z,101909.22
2023-02-21T12:47:52.079Z,101905.13
2023-02-21T12:50:22.471Z,101909.34
2023-02-21T12:52:49.868Z,101906.03
2023-02-21T12:55:21.399Z,101902.75
2023-02-21T12:57:51.821Z,101908.69
2023-02-21T13:00:22.518Z,101897.47
2023-02-21T13:03:30.070Z,101899.13
2023-02-21T13:06:00.500Z,101896.59
2023-02-21T13:08:35.008Z,101891.09
2023-02-21T13:11:05.143Z,101892.88
2023-02-21T13:13:33.682Z,101889.56
2023-02-21T13:16:06.265Z,101895.84
2023-02-21T13:18:36.761Z,101881.97
2023-02-21T13:21:18.993Z,101888.84
2023-02-21T13:24:05.370Z,101871.53
2023-02-21T13:26:32.760Z,101874.88
2023-02-21T13:29:00.817Z,101883.66
2023-02-21T13:31:39.296Z,101875.81
2023-02-21T13:34:08.669Z,101868.06
2023-02-21T13:36:38.802Z,101873.28
2023-02-21T13:39:15.063Z,101871.59
2023-02-21T13:41:42.495Z,101862.06
2023-02-21T13:44:11.884Z,101862.97
2023-02-21T13:46:39.268Z,101859.19
2023-02-21T13:49:25.433Z,101860.88
2023-02-21T13:51:55.983Z,101857.63
2023-02-21T13:54:25.069Z,101854.06
2023-02-21T13:56:53.175Z,101853.94
2023-02-21T13:59:26.600Z,101855.59
2023-02-21T14:02:14.014Z,101848.75
2023-02-21T14:04:59.880Z,101847.91
2023-02-21T14:07:43.827Z,101850.66
2023-02-21T14:10:40.722Z,101849.78
2023-02-21T14:13:18.270Z,101856.75
2023-02-21T14:15:47.087Z,101849.69
2023-02-21T14:18:20.532Z,101850.75
2023-02-21T14:20:49.875Z,101854.16
2023-02-21T14:23:18.477Z,101846.50
2023-02-21T14:25:57.825Z,101847.38
2023-02-21T14:28:45.306Z,101844.75
2023-02-21T14:31:13.034Z,101842.06
2023-02-21T14:33:40.620Z,101837.53
2023-02-21T14:36:09.677Z,101840.06
2023-02-21T14:38:40.207Z,101836.72
2023-02-21T14:41:20.646Z,101836.50
2023-02-21T14:44:10.807Z,101831.47
2023-02-21T14:46:50.761Z,101840.13
2023-02-21T14:49:36.757Z,101847.66
2023-02-21T14:52:04.164Z,101837.25
2023-02-21T14:54:50.365Z,101834.53
2023-02-21T14:57:17.814Z,101832.78
2023-02-21T14:59:45.189Z,101831.06
2023-02-21T15:02:24.755Z,101827.59
2023-02-21T15:04:56.918Z,101836.31
2023-02-21T15:07:44.420Z,101820.69
2023-02-21T15:10:25.391Z,101823.31
2023-02-21T15:12:54.016Z,101820.75
2023-02-21T15:15:24.529Z,101821.53
2023-02-21T15:18:07.093Z,101827.47
2023-02-21T15:20:36.095Z,101825.69
2023-02-21T15:23:29.697Z,101828.31
2023-02-21T15:25:58.416Z,101822.31
2023-02-21T15:28:30.613Z,101823.81
2023-02-21T15:30:59.846Z,101819.63
2023-02-21T15:33:29.130Z,101824.97
2023-02-21T15:36:00.885Z,101823.09
2023-02-21T15:38:43.678Z,101817.03
2023-02-21T15:41:17.709Z,101811.91
2023-02-21T15:43:48.433Z,101810.94
2023-02-21T15:46:19.303Z,101809.91
2023-02-21T15:48:47.272Z,101810.56
2023-02-21T15:51:15.106Z,101814.06
2023-02-21T15:53:42.755Z,101807.91
2023-02-21T15:56:24.838Z,101814.88
2023-02-21T15:59:11.074Z,101806.22
2023-02-21T16:01:38.951Z,101813.25
2023-02-21T16:04:23.555Z,101809.47
2023-02-21T16:06:55.471Z,101814.59
2023-02-21T16:09:28.027Z,101803.59
2023-02-21T16:11:58.991Z,101799.97
2023-02-21T16:14:35.404Z,101806.13
2023-02-21T16:17:08.966Z,101809.44
2023-02-21T16:19:36.775Z,101808.69
2023-02-21T16:22:19.332Z,101815.47
2023-02-21T16:24:46.732Z,101803.34
2023-02-21T16:27:17.329Z,101800.56
2023-02-21T16:29:44.838Z,101808.34
2023-02-21T16:32:18.321Z,101800.03
2023-02-21T16:34:45.792Z,101797.50
2023-02-21T16:37:14.271Z,101802.44
2023-02-21T16:39:42.255Z,101797.50
2023-02-21T16:42:09.672Z,101797.34
2023-02-21T16:44:37.206Z,101793.75
2023-02-21T16:47:04.748Z,101788.56
2023-02-21T16:49:32.284Z,101797.13
2023-02-21T16:51:59.665Z,101790.28
2023-02-21T16:54:27.115Z,101804.69
2023-02-21T16:56:54.720Z,101798.59
2023-02-21T16:59:24.005Z,101797.81
2023-02-21T17:01:51.672Z,101796.91
2023-02-21T17:04:20.494Z,101796.03
2023-02-21T17:06:48.973Z,101788.94
2023-02-21T17:09:21.027Z,101793.38
2023-02-21T17:11:48.506Z,101794.25
2023-02-21T17:14:16.003Z,101791.50
2023-02-21T17:16:45.048Z,101788.00
2023-02-21T17:19:17.089Z,101792.31
2023-02-21T17:21:44.892Z,101789.00
2023-02-21T17:24:13.402Z,101778.72
2023-02-21T17:26:41.327Z,101788.19
2023-02-21T17:29:09.346Z,101791.66
2023-02-21T17:31:36.741Z,101791.56
2023-02-21T17:34:04.971Z,101794.84
2023-02-21T17:36:32.552Z,101791.34
2023-02-21T17:39:00.144Z,101787.13
2023-02-21T17:41:28.983Z,101791.50
2023-02-21T17:43:56.772Z,101792.94
2023-02-21T17:46:24.342Z,101789.63
2023-02-21T17:48:51.872Z,101792.88
2023-02-21T17:51:20.738Z,101794.81
2023-02-21T17:53:48.481Z,101787.50
2023-02-21T17:56:24.409Z,101789.47
2023-02-21T17:58:51.835Z,101787.84
2023-02-21T18:01:19.896Z,101782.66
2023-02-21T18:03:48.203Z,101784.94
2023-02-21T18:06:16.537Z,101794.66
2023-02-21T18:08:47.160Z,101795.53
2023-02-21T18:11:15.809Z,101790.28
2023-02-21T18:13:43.742Z,101792.00
2023-02-21T18:16:11.274Z,101790.25
2023-02-21T18:18:38.735Z,101785.00
2023-02-21T18:21:06.371Z,101792.88
2023-02-21T18:23:35.324Z,101789.09
2023-02-21T18:26:03.195Z,101784.59
2023-02-21T18:28:31.079Z,101785.75
2023-02-21T18:30:58.583Z,101775.50
2023-02-21T18:33:27.103Z,101781.44
2023-02-21T18:35:57.865Z,101777.06
2023-02-21T18:38:25.541Z,101776.31
2023-02-21T18:40:54.547Z,101778.81
2023-02-21T18:43:23.586Z,101784.84
2023-02-21T18:45:52.375Z,101777.09
2023-02-21T18:48:19.975Z,101779.50
2023-02-21T18:50:47.443Z,101772.56
2023-02-21T18:53:15.488Z,101776.81
2023-02-21T18:55:43.074Z,101773.31
2023-02-21T18:58:10.865Z,101761.38
2023-02-21T19:00:40.798Z,101763.03
2023-02-21T19:03:09.031Z,101761.31
2023-02-21T19:05:37.321Z,101766.50
2023-02-21T19:08:05.019Z,101756.28
2023-02-21T19:10:33.007Z,101753.69
2023-02-21T19:13:01.981Z,101754.56
2023-02-21T19:15:31.426Z,101747.72
2023-02-21T19:17:59.977Z,101751.03
2023-02-21T19:20:27.792Z,101745.97
2023-02-21T19:22:56.053Z,101752.81
2023-02-21T19:25:26.934Z,101752.13
2023-02-21T19:28:00.178Z,101752.91
2023-02-21T19:30:33.786Z,101741.66
2023-02-21T19:33:01.895Z,101746.00
2023-02-21T19:35:30.212Z,101744.69
2023-02-21T19:37:58.110Z,101739.16
2023-02-21T19:40:26.768Z,101742.47
2023-02-21T19:42:54.141Z,101735.00
2023-02-21T19:45:21.601Z,101739.16
2023-02-21T19:47:49.032Z,101741.69
2023-02-21T19:50:16.544Z,101740.88
2023-02-21T19:52:46.196Z,101734.97
2023-02-21T19:55:15.120Z,101744.16
2023-02-21T19:57:42.570Z,101737.22
2023-02-21T20:00:11.736Z,101745.09
2023-02-21T20:02:39.129Z,101745.13
2023-02-21T20:05:06.834Z,101747.72
2023-02-21T20:07:34.271Z,101746.84
2023-02-21T20:10:01.673Z,101743.56
2023-02-21T20:12:29.174Z,101737.44
2023-02-21T20:14:56.617Z,101744.44
2023-02-21T20:17:24.038Z,101740.03
2023-02-21T20:19:51.503Z,101739.09
2023-02-21T20:22:18.890Z,101746.19
2023-02-21T20:24:46.560Z,101740.78
2023-02-21T20:27:15.111Z,101735.63
2023-02-21T20:29:42.572Z,101721.19
2023-02-21T20:32:10.044Z,101728.88
2023-02-21T20:34:39.805Z,101725.84
2023-02-21T20:37:07.234Z,101719.00
2023-02-21T20:39:34.937Z,101725.28
2023-02-21T20:42:06.427Z,101723.53
2023-02-21T20:44:35.041Z,101722.66
2023-02-21T20:47:03.177Z,101714.91
2023-02-21T20:49:31.109Z,101726.16
2023-02-21T20:51:58.653Z,101729.41
2023-02-21T20:54:26.270Z,101724.16
2023-02-21T20:56:54.907Z,101728.66
2023-02-21T20:59:24.457Z,101721.72
2023-02-21T21:01:51.905Z,101726.03
2023-02-21T21:04:21.781Z,101723.38
2023-02-21T21:06:49.705Z,101710.56
2023-02-21T21:09:18.097Z,101721.66
2023-02-21T21:11:45.967Z,101723.13
2023-02-21T21:14:16.379Z,101717.97
2023-02-21T21:16:44.230Z,101727.38
2023-02-21T21:19:11.791Z,101719.75
2023-02-21T21:21:39.287Z,101713.63
2023-02-21T21:24:07.680Z,101726.63
2023-02-21T21:26:37.610Z,101718.56
2023-02-21T21:29:09.017Z,101718.50
2023-02-21T21:31:36.450Z,101716.81
2023-02-21T21:34:03.888Z,101714.34
2023-02-21T21:36:31.406Z,101716.25
2023-02-21T21:38:59.909Z,101709.41
2023-02-21T21:41:27.300Z,101712.78
2023-02-21T21:43:54.717Z,101708.97
2023-02-21T21:46:22.969Z,101705.47
2023-02-21T21:48:50.431Z,101702.06
2023-02-21T21:51:18.045Z,101701.16
2023-02-21T21:53:47.064Z,101689.81
2023-02-21T21:56:17.406Z,101688.88
2023-02-21T21:58:44.864Z,101681.31
2023-02-21T22:01:15.297Z,101681.41
2023-02-21T22:03:42.916Z,101674.34
2023-02-21T22:06:10.981Z,101674.16
2023-02-21T22:08:38.947Z,101668.75
2023-02-21T22:11:09.676Z,101672.41
2023-02-21T22:13:37.143Z,101668.13
2023-02-21T22:16:04.632Z,101661.25
2023-02-21T22:18:32.216Z,101648.06
2023-02-21T22:20:59.698Z,101653.25
2023-02-21T22:23:27.437Z,101648.06
2023-02-21T22:25:57.171Z,101642.72
2023-02-21T22:28:24.650Z,101632.53
2023-02-21T22:30:52.328Z,101634.09
2023-02-21T22:33:21.766Z,101629.50
2023-02-21T22:35:49.300Z,101630.63
2023-02-21T22:38:17.487Z,101631.31
2023-02-21T22:40:46.265Z,101621.06
2023-02-21T22:43:14.349Z,101619.25
2023-02-21T22:45:44.275Z,101620.88
2023-02-21T22:48:12.105Z,101618.94
2023-02-21T22:50:39.774Z,101619.03
2023-02-21T22:53:08.992Z,101616.53
2023-02-21T22:55:38.053Z,101608.69
2023-02-21T22:58:07.564Z,101611.34
2023-02-21T23:00:35.553Z,101602.63
2023-02-21T23:03:12.581Z,101601.06
2023-02-21T23:05:50.540Z,101591.34
2023-02-21T23:08:20.217Z,101594.16
2023-02-21T23:10:47.687Z,101592.44
2023-02-21T23:13:17.153Z,101580.38
2023-02-21T23:15:45.344Z,101582.09
2023-02-21T23:18:18.113Z,101576.75
2023-02-21T23:20:45.567Z,101575.66
2023-02-21T23:23:14.147Z,101572.81
2023-02-21T23:25:41.683Z,101570.09
2023-02-21T23:28:12.107Z,101559.03
2023-02-21T23:30:42.072Z,101557.16
2023-02-21T23:33:25.071Z,101558.06
2023-02-21T23:35:53.618Z,101569.00
2023-02-21T23:38:23.627Z,101562.28
2023-02-21T23:40:56.064Z,101555.22
2023-02-21T23:43:35.866Z,101564.09
2023-02-21T23:46:04.674Z,101567.50
2023-02-21T23:48:32.640Z,101569.06
2023-02-21T23:51:00.494Z,101576.00
2023-02-21T23:53:30.221Z,101570.94
2023-02-21T23:56:00.394Z,101570.84
2023-02-21T23:58:31.446Z,101568.31
